createdAt,value
2019-04-05T00:01:06.469Z,8.00
2019-04-05T00:03:37.266Z,7.80
2019-04-05T00:06:08.183Z,7.70
2019-04-05T00:08:39.093Z,8.00
2019-04-05T00:11:10.016Z,8.10
2019-04-05T00:13:40.894Z,7.80
2019-04-05T00:16:11.874Z,7.90
2019-04-05T00:18:44.158Z,7.90
2019-04-05T00:21:15.201Z,7.80
2019-04-05T00:23:46.110Z,7.60
2019-04-05T00:26:16.963Z,7.70
2019-04-05T00:28:47.745Z,7.50
2019-04-05T00:31:19.771Z,7.40
2019-04-05T00:33:50.710Z,7.40
2019-04-05T00:36:21.646Z,7.30
2019-04-05T00:41:24.133Z,7.10
2019-04-05T00:43:55.070Z,7.10
2019-04-05T00:46:25.950Z,7.00
2019-04-05T00:48:58.280Z,7.00
2019-04-05T00:51:29.119Z,7.00
2019-04-05T00:53:59.973Z,7.10
2019-04-05T00:56:30.889Z,7.10
2019-04-05T00:59:02.954Z,7.10
2019-04-05T01:01:34.095Z,7.10
2019-04-05T01:04:05.051Z,7.30
2019-04-05T01:06:35.970Z,7.30
2019-04-05T01:09:09.502Z,7.20
2019-04-05T01:11:40.507Z,7.00
2019-04-05T01:14:11.684Z,7.00
2019-04-05T01:16:42.636Z,6.90
2019-04-05T01:19:15.178Z,6.90
2019-04-05T01:21:48.733Z,6.70
2019-04-05T01:24:20.397Z,6.70
2019-04-05T01:26:51.683Z,6.60
2019-04-05T01:29:24.954Z,6.60
2019-04-05T01:31:55.869Z,6.70
2019-04-05T01:34:26.932Z,6.70
2019-04-05T01:36:57.895Z,6.70
2019-04-05T01:39:28.910Z,6.70
2019-04-05T01:41:59.936Z,6.70
2019-04-05T01:44:30.879Z,6.60
2019-04-05T01:47:01.825Z,6.50
2019-04-05T01:49:33.825Z,6.40
2019-04-05T01:52:04.827Z,6.30
2019-04-05T01:54:35.768Z,6.30
2019-04-05T01:57:06.698Z,6.20
2019-04-05T01:59:37.468Z,6.20
2019-04-05T02:02:08.472Z,6.00
2019-04-05T02:04:40.408Z,6.10
2019-04-05T02:07:11.371Z,6.00
2019-04-05T02:09:42.413Z,6.00
2019-04-05T02:12:13.450Z,6.10
2019-04-05T02:14:44.294Z,6.20
2019-04-05T02:17:15.235Z,5.80
2019-04-05T02:19:46.160Z,6.00
2019-04-05T02:22:17.177Z,6.00
2019-04-05T02:24:49.532Z,5.90
2019-04-05T02:27:20.430Z,5.90
2019-04-05T02:29:51.347Z,5.80
2019-04-05T02:32:22.184Z,5.70
2019-04-05T02:34:55.478Z,5.70
2019-04-05T02:37:26.414Z,5.70
2019-04-05T02:39:57.361Z,5.80
2019-04-05T02:42:28.596Z,5.80
2019-04-05T02:45:00.736Z,5.60
2019-04-05T02:47:33.030Z,5.70
2019-04-05T02:50:04.850Z,5.80
2019-04-05T02:52:36.991Z,5.70
2019-04-05T02:55:11.711Z,5.80
2019-04-05T02:57:45.074Z,5.80
2019-04-05T03:00:16.005Z,5.70
2019-04-05T03:02:47.221Z,5.70
2019-04-05T03:05:19.601Z,5.70
2019-04-05T03:07:50.937Z,5.70
2019-04-05T03:10:59.388Z,5.60
2019-04-05T03:13:33.296Z,5.60
2019-04-05T03:16:07.072Z,5.50
2019-04-05T03:18:40.775Z,5.50
2019-04-05T03:21:13.998Z,5.40
2019-04-05T03:23:45.293Z,5.50
2019-04-05T03:26:18.609Z,5.50
2019-04-05T03:28:52.440Z,5.40
2019-04-05T03:31:25.475Z,5.60
2019-04-05T03:33:55.978Z,5.40
2019-04-05T03:36:27.515Z,5.30
2019-04-05T03:38:58.987Z,5.40
2019-04-05T03:41:29.768Z,5.30
2019-04-05T03:44:00.720Z,5.30
2019-04-05T03:46:33.060Z,5.30
2019-04-05T03:49:05.257Z,5.20
2019-04-05T03:51:36.096Z,5.40
2019-04-05T03:54:07.041Z,5.40
2019-04-05T03:56:39.060Z,5.40
2019-04-05T03:59:09.933Z,5.40
2019-04-05T04:01:40.984Z,5.40
2019-04-05T04:04:11.854Z,5.70
2019-04-05T04:06:42.852Z,5.70
2019-04-05T04:09:13.785Z,5.80
2019-04-05T04:11:44.651Z,6.00
2019-04-05T04:14:15.401Z,6.10
2019-04-05T04:16:47.857Z,6.20
2019-04-05T04:19:18.788Z,6.20
2019-04-05T04:21:57.725Z,6.30
2019-04-05T04:24:28.560Z,6.40
2019-04-05T04:27:00.700Z,6.40
2019-04-05T04:29:31.537Z,6.50
2019-04-05T04:32:02.473Z,6.50
2019-04-05T04:34:33.397Z,6.60
2019-04-05T04:37:05.774Z,6.60
2019-04-05T04:39:36.959Z,6.60
2019-04-05T04:42:08.007Z,6.70
2019-04-05T04:44:38.891Z,6.80
2019-04-05T04:47:09.840Z,6.80
2019-04-05T04:49:40.906Z,6.90
2019-04-05T04:52:11.985Z,6.90
2019-04-05T04:54:42.835Z,7.00
2019-04-05T04:57:13.749Z,6.90
2019-04-05T04:59:44.584Z,7.00
2019-04-05T05:02:15.549Z,7.00
2019-04-05T05:04:46.357Z,7.10
2019-04-05T05:07:17.430Z,7.20
2019-04-05T05:09:48.280Z,7.10
2019-04-05T05:12:19.270Z,7.20
2019-04-05T05:14:50.172Z,7.20
2019-04-05T05:17:21.493Z,7.30
2019-04-05T05:19:52.604Z,7.20
2019-04-05T05:22:23.876Z,7.20
2019-04-05T05:24:55.038Z,7.30
2019-04-05T05:27:27.288Z,7.40
2019-04-05T05:29:58.398Z,7.40
2019-04-05T05:32:29.362Z,7.40
2019-04-05T05:35:02.130Z,7.50
2019-04-05T05:37:33.137Z,7.40
2019-04-05T05:40:06.457Z,7.50
2019-04-05T05:42:37.486Z,7.50
2019-04-05T05:45:09.751Z,7.60
2019-04-05T05:47:51.018Z,7.70
2019-04-05T05:50:13.269Z,7.70
2019-04-05T05:52:44.437Z,7.70
2019-04-05T05:55:15.292Z,7.80
2019-04-05T05:57:47.309Z,7.80
2019-04-05T06:00:20.908Z,7.90
2019-04-05T06:02:51.811Z,7.80
2019-04-05T06:05:22.579Z,8.00
2019-04-05T06:07:54.960Z,7.90
2019-04-05T06:10:25.729Z,7.80
2019-04-05T06:12:58.725Z,7.90
2019-04-05T06:15:29.008Z,8.00
2019-04-05T06:18:04.926Z,8.10
2019-04-05T06:20:33.632Z,8.30
2019-04-05T06:23:04.416Z,8.20
2019-04-05T06:25:35.373Z,8.20
